Time;durP1;ratioP1;P1;durP2;ratioP2;P2;SDS_P1;SDS_P2;PMS_P1;PMS_P2;Temp;Humidity;BMP_temperature;BMP_pressure;BME280_temperature;BME280_humidity;BME280_pressure;Samples;Min_cycle;Max_cycle;Signal;HPM_P1;HPM_P2
2023/07/24 00:02:17;;;;;;;6.05;2.00;;;18.00;99.90;;;;;;5094938;28;20399;-47
2023/07/24 00:04:43;;;;;;;5.32;1.77;;;18.00;99.90;;;;;;5095939;28;20044;-46
2023/07/24 00:07:08;;;;;;;9.43;2.45;;;18.00;99.90;;;;;;5096850;28;20048;-46
2023/07/24 00:09:34;;;;;;;5.50;2.10;;;18.00;99.90;;;;;;5096116;28;20126;-46
2023/07/24 00:11:59;;;;;;;5.57;2.22;;;18.00;99.90;;;;;;5096078;28;20118;-46
2023/07/24 00:14:25;;;;;;;5.55;2.45;;;18.00;99.90;;;;;;5095929;28;20059;-46
2023/07/24 00:16:51;;;;;;;5.18;2.05;;;18.00;99.90;;;;;;5095906;28;20039;-46
2023/07/24 00:19:16;;;;;;;7.18;2.10;;;18.00;99.90;;;;;;5095734;28;20048;-46
2023/07/24 00:21:42;;;;;;;7.78;2.47;;;18.00;99.90;;;;;;5094676;28;20040;-47
2023/07/24 00:24:08;;;;;;;6.88;2.42;;;18.00;99.90;;;;;;5095987;28;20554;-46
2023/07/24 00:26:33;;;;;;;4.68;1.95;;;17.90;99.90;;;;;;5094650;28;20371;-47
2023/07/24 00:29:00;;;;;;;5.35;2.10;;;17.90;99.90;;;;;;5095811;28;20105;-46
2023/07/24 00:31:26;;;;;;;5.93;2.20;;;17.90;99.90;;;;;;5094718;28;20055;-46
2023/07/24 00:33:52;;;;;;;5.78;2.30;;;17.90;99.90;;;;;;5094424;28;20048;-46
2023/07/24 00:36:17;;;;;;;8.05;2.35;;;17.90;99.90;;;;;;5095621;28;20048;-47
2023/07/24 00:38:43;;;;;;;7.35;2.50;;;17.90;99.90;;;;;;5095624;28;20044;-46
2023/07/24 00:41:09;;;;;;;6.00;1.98;;;17.90;99.90;;;;;;5094383;28;20058;-46
2023/07/24 00:43:35;;;;;;;5.97;2.42;;;17.90;99.90;;;;;;5095245;28;20044;-46
2023/07/24 00:46:01;;;;;;;5.03;2.15;;;17.90;99.90;;;;;;5094457;28;20093;-47
2023/07/24 00:48:27;;;;;;;5.13;2.15;;;17.80;99.90;;;;;;5095190;28;20119;-45
2023/07/24 00:50:54;;;;;;;6.28;2.20;;;17.80;99.90;;;;;;5095356;28;20508;-47
2023/07/24 00:53:20;;;;;;;5.95;2.05;;;17.80;99.90;;;;;;5095045;28;20048;-46
2023/07/24 00:55:46;;;;;;;7.55;2.30;;;17.80;99.90;;;;;;5095109;28;20394;-48
2023/07/24 00:58:12;;;;;;;6.35;2.80;;;17.80;99.90;;;;;;5095359;28;20044;-46
2023/07/24 01:00:38;;;;;;;5.00;1.73;;;17.70;99.90;;;;;;5094990;28;20445;-48
2023/07/24 01:03:04;;;;;;;5.32;2.22;;;17.70;99.90;;;;;;5094895;28;20040;-46
2023/07/24 01:05:30;;;;;;;6.90;2.30;;;17.70;99.90;;;;;;5094892;28;20059;-47
2023/07/24 01:07:56;;;;;;;7.50;2.47;;;17.70;99.90;;;;;;5093814;28;20054;-47
2023/07/24 01:10:22;;;;;;;5.75;2.42;;;17.70;99.90;;;;;;5095021;28;20047;-46
2023/07/24 01:13:15;;;;;;;5.85;2.28;;;17.60;99.90;;;;;;5093644;28;20036;-47
2023/07/24 01:15:50;;;;;;;6.85;3.00;;;17.60;99.90;;;;;;5094611;28;20131;-46
2023/07/24 01:18:17;;;;;;;8.10;2.47;;;17.60;99.90;;;;;;5093656;28;20079;-45
2023/07/24 01:20:52;;;;;;;5.95;2.17;;;17.60;99.90;;;;;;5094761;28;20097;-46
2023/07/24 01:24:13;;;;;;;6.55;2.67;;;17.60;99.90;;;;;;5094475;28;20036;-46
2023/07/24 01:26:39;;;;;;;7.45;2.30;;;17.50;99.90;;;;;;5032126;28;20053;-47
2023/07/24 01:29:05;;;;;;;6.25;2.55;;;17.50;99.90;;;;;;5081664;28;20105;-47
2023/07/24 01:31:30;;;;;;;6.13;2.30;;;17.50;99.90;;;;;;5094287;28;20051;-47
2023/07/24 01:33:56;;;;;;;5.60;2.20;;;17.50;99.90;;;;;;5094415;28;20086;-48
2023/07/24 01:36:22;;;;;;;8.95;2.50;;;17.50;99.90;;;;;;5094440;28;20055;-46
2023/07/24 01:38:50;;;;;;;6.57;2.60;;;17.50;99.90;;;;;;5094514;28;20125;-47
2023/07/24 01:41:16;;;;;;;7.72;2.83;;;17.50;99.90;;;;;;5094322;28;20044;-47
2023/07/24 01:43:43;;;;;;;;;;;17.50;99.90;;;;;;5094890;28;20131;-46
2023/07/24 01:46:08;;;;;;;6.82;2.88;;;17.50;99.90;;;;;;5094253;28;19980;-47
2023/07/24 01:48:34;;;;;;;7.43;2.95;;;17.40;99.90;;;;;;5094323;28;20095;-47
2023/07/24 01:51:00;;;;;;;7.63;3.17;;;17.40;99.90;;;;;;5094065;28;20093;-46
2023/07/24 01:53:25;;;;;;;6.95;3.22;;;17.40;99.90;;;;;;5093957;28;20094;-47
2023/07/24 01:55:51;;;;;;;7.22;3.50;;;17.40;99.90;;;;;;5094344;28;20048;-47
2023/07/24 01:58:17;;;;;;;7.15;2.97;;;17.40;99.90;;;;;;5094294;28;20141;-46
2023/07/24 02:00:43;;;;;;;8.27;3.40;;;17.40;99.90;;;;;;5094292;28;20395;-46
2023/07/24 02:03:08;;;;;;;8.98;3.72;;;17.40;99.90;;;;;;5093842;28;20386;-46
2023/07/24 02:05:35;;;;;;;10.85;3.75;;;17.40;99.90;;;;;;5093407;28;20060;-46
2023/07/24 02:08:01;;;;;;;6.72;3.35;;;17.40;99.90;;;;;;5094265;28;20048;-46
2023/07/24 02:10:26;;;;;;;7.75;3.95;;;17.40;99.90;;;;;;5093936;28;20046;-46
2023/07/24 02:12:52;;;;;;;8.15;4.00;;;17.30;99.90;;;;;;5093913;28;20036;-46
2023/07/24 02:15:18;;;;;;;9.70;3.80;;;17.40;99.90;;;;;;5093989;28;20117;-47
2023/07/24 02:17:43;;;;;;;9.20;4.18;;;17.40;99.90;;;;;;5093815;28;20473;-47
2023/07/24 02:20:09;;;;;;;9.38;4.10;;;17.40;99.90;;;;;;5093737;28;20044;-46
2023/07/24 02:22:35;;;;;;;10.48;4.68;;;17.30;99.90;;;;;;5092380;28;20437;-47
2023/07/24 02:25:01;;;;;;;8.70;4.53;;;17.40;99.90;;;;;;5094190;28;20048;-47
2023/07/24 02:27:33;;;;;;;8.98;4.15;;;17.40;99.90;;;;;;5093808;28;20085;-46
2023/07/24 02:29:59;;;;;;;8.65;3.97;;;17.40;99.90;;;;;;5093736;28;20051;-47
2023/07/24 02:32:25;;;;;;;7.50;3.97;;;17.40;99.90;;;;;;5092651;28;20434;-47
2023/07/24 02:34:52;;;;;;;9.95;4.25;;;17.40;99.90;;;;;;5093483;28;20047;-46
2023/07/24 02:37:18;;;;;;;9.68;4.00;;;17.40;99.90;;;;;;5093902;28;20055;-48
2023/07/24 02:39:44;;;;;;;8.38;4.13;;;17.40;99.90;;;;;;5093686;28;20052;-47
2023/07/24 02:42:09;;;;;;;8.85;4.15;;;17.30;99.90;;;;;;5093558;28;20044;-46
2023/07/24 02:44:35;;;;;;;9.93;3.90;;;17.30;99.90;;;;;;5093571;28;20044;-47
2023/07/24 02:47:01;;;;;;;8.88;4.32;;;17.30;99.90;;;;;;5092521;28;20047;-47
2023/07/24 02:49:26;;;;;;;9.00;4.90;;;17.30;99.90;;;;;;5093508;28;20062;-46
2023/07/24 02:51:52;;;;;;;8.63;3.75;;;17.30;99.90;;;;;;5092467;28;20035;-47
2023/07/24 02:54:17;;;;;;;10.88;4.78;;;17.30;99.90;;;;;;5093551;28;20040;-47
2023/07/24 02:56:43;;;;;;;7.93;3.83;;;17.30;99.90;;;;;;5093362;28;20252;-47
2023/07/24 02:59:09;;;;;;;11.32;4.90;;;17.30;99.90;;;;;;5093357;28;20044;-46
2023/07/24 03:01:34;;;;;;;10.07;4.32;;;17.30;99.90;;;;;;5093237;28;20044;-47
2023/07/24 03:04:00;;;;;;;8.38;4.00;;;17.30;99.90;;;;;;5093358;28;20044;-46
2023/07/24 03:06:26;;;;;;;8.02;4.60;;;17.30;99.90;;;;;;5092347;28;20052;-46
2023/07/24 03:08:52;;;;;;;10.27;4.35;;;17.30;99.90;;;;;;5092255;28;20047;-46
2023/07/24 03:11:18;;;;;;;8.93;4.72;;;17.30;99.90;;;;;;5092167;28;20127;-47
2023/07/24 03:13:44;;;;;;;10.45;3.90;;;17.30;99.90;;;;;;5092068;28;20048;-47
2023/07/24 03:16:10;;;;;;;7.93;4.03;;;17.30;99.90;;;;;;5094985;28;20052;-46
2023/07/24 03:18:35;;;;;;;8.98;4.30;;;17.30;99.90;;;;;;5096956;28;20052;-46
2023/07/24 03:21:02;;;;;;;9.38;4.00;;;17.30;99.90;;;;;;5096745;28;20048;-46
2023/07/24 03:23:28;;;;;;;9.07;4.50;;;17.30;99.90;;;;;;5096898;28;20134;-48
2023/07/24 03:25:53;;;;;;;9.75;4.57;;;17.30;99.90;;;;;;5097276;28;20047;-46
2023/07/24 03:28:19;;;;;;;8.88;4.53;;;17.40;99.90;;;;;;5096899;28;20137;-47
2023/07/24 03:30:45;;;;;;;8.18;3.83;;;17.40;99.90;;;;;;5096786;28;20079;-46
2023/07/24 03:33:12;;;;;;;8.48;3.72;;;17.40;99.90;;;;;;5096676;28;20076;-47
2023/07/24 03:35:39;;;;;;;10.07;3.30;;;17.40;99.90;;;;;;5096665;28;20047;-47
2023/07/24 03:38:05;;;;;;;8.07;4.03;;;17.40;99.90;;;;;;5096762;28;20047;-47
2023/07/24 03:40:30;;;;;;;8.25;3.72;;;17.40;99.90;;;;;;5097149;28;20090;-46
2023/07/24 03:42:56;;;;;;;7.32;3.40;;;17.40;99.90;;;;;;5096447;28;20032;-46
2023/07/24 03:45:21;;;;;;;8.73;3.83;;;17.40;99.90;;;;;;5096670;28;20051;-46
2023/07/24 03:47:47;;;;;;;9.27;4.00;;;17.40;99.90;;;;;;5095027;28;20040;-47
2023/07/24 03:50:13;;;;;;;7.85;3.53;;;17.40;99.90;;;;;;5095287;28;20078;-46
2023/07/24 03:52:38;;;;;;;7.20;3.25;;;17.40;99.90;;;;;;5096267;28;20040;-46
2023/07/24 03:55:05;;;;;;;6.85;3.33;;;17.40;99.90;;;;;;5096401;28;20054;-46
2023/07/24 03:57:30;;;;;;;7.95;3.70;;;17.40;99.90;;;;;;5096428;28;20051;-46
2023/07/24 03:59:56;;;;;;;8.52;3.63;;;17.40;99.90;;;;;;5096342;28;20039;-47
2023/07/24 04:02:22;;;;;;;6.45;3.17;;;17.40;99.90;;;;;;5095146;28;20118;-47
2023/07/24 04:04:48;;;;;;;7.15;3.33;;;17.40;99.90;;;;;;5095738;28;20094;-46
2023/07/24 04:07:13;;;;;;;7.78;3.42;;;17.40;99.90;;;;;;5095271;28;20087;-46
2023/07/24 04:09:39;;;;;;;7.80;3.47;;;17.40;99.90;;;;;;5095002;28;20044;-46
2023/07/24 04:12:05;;;;;;;7.82;3.20;;;17.50;99.90;;;;;;5096111;28;20101;-47
2023/07/24 04:14:31;;;;;;;8.90;3.80;;;17.40;99.90;;;;;;5095097;28;20059;-47
2023/07/24 04:16:56;;;;;;;7.20;3.50;;;17.50;99.90;;;;;;5096025;28;20452;-47
2023/07/24 04:19:22;;;;;;;7.60;3.60;;;17.50;99.90;;;;;;5095658;28;20502;-47
2023/07/24 04:21:47;;;;;;;8.32;3.55;;;17.50;99.90;;;;;;5095852;28;20044;-46
2023/07/24 04:24:13;;;;;;;7.50;3.13;;;17.50;99.90;;;;;;5096283;28;20044;-47
2023/07/24 04:26:39;;;;;;;7.20;3.08;;;17.50;99.90;;;;;;5096125;28;20043;-47
2023/07/24 04:29:06;;;;;;;6.97;3.17;;;17.50;99.90;;;;;;5095216;28;20044;-47
2023/07/24 04:31:31;;;;;;;;;;;17.50;99.90;;;;;;5095976;28;20101;-46
2023/07/24 04:33:57;;;;;;;9.60;3.38;;;17.50;99.90;;;;;;5095461;28;19924;-47
2023/07/24 04:36:22;;;;;;;7.35;3.25;;;17.50;99.90;;;;;;5095607;28;20046;-47
2023/07/24 04:38:48;;;;;;;9.23;3.13;;;17.50;99.90;;;;;;5094430;28;20059;-47
2023/07/24 04:41:14;;;;;;;6.75;2.70;;;17.50;99.90;;;;;;5095508;28;20051;-46
2023/07/24 04:43:39;;;;;;;6.57;3.10;;;17.50;99.90;;;;;;5095265;28;20417;-49
2023/07/24 04:46:05;;;;;;;8.55;3.63;;;17.50;99.90;;;;;;5095404;28;20088;-49
2023/07/24 04:48:31;;;;;;;7.20;3.28;;;17.50;99.90;;;;;;5094148;28;20127;-46
2023/07/24 04:50:57;;;;;;;8.00;3.47;;;17.50;99.90;;;;;;5095276;28;20051;-47
2023/07/24 04:53:23;;;;;;;7.50;3.85;;;17.50;99.90;;;;;;5095298;28;20040;-47
2023/07/24 04:55:49;;;;;;;10.13;3.65;;;17.50;99.90;;;;;;5095553;28;20036;-47
2023/07/24 04:58:15;;;;;;;8.02;3.50;;;17.50;99.90;;;;;;5095098;28;20040;-47
2023/07/24 05:00:41;;;;;;;7.38;3.83;;;17.50;99.90;;;;;;5094925;28;20052;-49
2023/07/24 05:03:10;;;;;;;8.75;3.70;;;17.50;99.90;;;;;;5094837;28;20044;-47
2023/07/24 05:05:39;;;;;;;7.50;3.97;;;17.50;99.90;;;;;;5095031;28;20052;-46
2023/07/24 05:08:08;;;;;;;7.50;3.85;;;17.50;99.90;;;;;;5093727;28;20490;-47
2023/07/24 05:10:36;;;;;;;8.13;3.63;;;17.50;99.90;;;;;;5094866;28;20135;-46
2023/07/24 05:13:02;;;;;;;7.45;3.65;;;17.50;99.90;;;;;;5094987;28;20048;-46
2023/07/24 05:15:28;;;;;;;9.65;3.80;;;17.50;99.90;;;;;;5094806;28;20060;-46
2023/07/24 05:17:53;;;;;;;9.63;3.50;;;17.50;99.90;;;;;;5094909;28;20498;-47
2023/07/24 05:20:19;;;;;;;7.05;3.53;;;17.50;99.90;;;;;;5094791;28;20131;-46
2023/07/24 05:22:45;;;;;;;7.65;3.90;;;17.50;99.90;;;;;;5094860;28;20119;-46
2023/07/24 05:25:10;;;;;;;7.15;3.58;;;17.50;99.90;;;;;;5093508;28;20106;-46
2023/07/24 05:27:36;;;;;;;7.97;4.25;;;17.50;99.90;;;;;;5094567;28;20394;-46
2023/07/24 05:30:02;;;;;;;7.70;4.07;;;17.60;99.90;;;;;;5094370;28;20135;-47
2023/07/24 05:32:28;;;;;;;7.35;3.85;;;17.50;99.90;;;;;;5094586;28;20048;-46
2023/07/24 05:34:53;;;;;;;7.72;3.65;;;17.60;99.90;;;;;;5094560;28;20070;-46
2023/07/24 05:37:19;;;;;;;8.20;4.18;;;17.60;99.90;;;;;;5094529;28;20075;-46
2023/07/24 05:39:45;;;;;;;7.70;3.65;;;17.60;99.90;;;;;;5093496;28;20050;-46
2023/07/24 05:42:10;;;;;;;8.20;3.67;;;17.60;99.90;;;;;;5093189;28;20039;-46
2023/07/24 05:44:37;;;;;;;7.55;3.60;;;17.60;99.90;;;;;;5094225;28;20472;-46
2023/07/24 05:47:03;;;;;;;8.60;3.80;;;17.60;99.90;;;;;;5095043;28;20044;-46
2023/07/24 05:49:29;;;;;;;7.78;3.53;;;17.70;99.90;;;;;;5094389;28;20078;-47
2023/07/24 05:51:56;;;;;;;8.27;3.70;;;17.70;99.90;;;;;;5092938;28;20486;-46
2023/07/24 05:54:22;;;;;;;8.15;3.67;;;17.70;99.90;;;;;;5094186;28;20051;-47
2023/07/24 05:56:48;;;;;;;7.60;3.80;;;17.70;99.90;;;;;;5094120;28;20126;-46
2023/07/24 05:59:14;;;;;;;7.53;3.67;;;17.70;99.90;;;;;;5093742;28;20451;-46
2023/07/24 06:01:39;;;;;;;7.47;3.78;;;17.70;99.90;;;;;;5092889;28;20040;-47
2023/07/24 06:04:07;;;;;;;7.53;3.65;;;17.70;99.90;;;;;;5094498;28;20120;-47
2023/07/24 06:06:33;;;;;;;8.23;3.88;;;17.70;99.90;;;;;;5076162;28;20052;-45
2023/07/24 06:08:58;;;;;;;8.80;3.88;;;17.70;99.90;;;;;;5094137;28;20126;-46
2023/07/24 06:11:26;;;;;;;7.82;3.95;;;17.70;99.90;;;;;;5093791;28;20083;-46
2023/07/24 06:13:52;;;;;;;7.50;3.60;;;17.70;99.90;;;;;;5092728;28;20036;-46
2023/07/24 06:16:18;;;;;;;8.40;3.75;;;17.70;99.90;;;;;;5092725;28;20051;-46
2023/07/24 06:18:44;;;;;;;7.38;3.20;;;17.70;99.90;;;;;;5094181;28;20434;-47
2023/07/24 06:21:10;;;;;;;6.95;3.60;;;17.70;99.90;;;;;;5093824;28;20080;-47
2023/07/24 06:23:36;;;;;;;7.50;3.83;;;17.70;99.90;;;;;;5093644;28;20044;-46
2023/07/24 06:26:01;;;;;;;7.88;3.20;;;17.70;99.90;;;;;;5092490;28;20080;-46
2023/07/24 06:28:28;;;;;;;8.05;4.30;;;17.70;99.90;;;;;;5093626;28;20055;-47
2023/07/24 06:30:54;;;;;;;7.57;3.67;;;17.70;99.90;;;;;;5093954;28;20125;-46
2023/07/24 06:33:21;;;;;;;8.45;3.72;;;17.80;99.90;;;;;;5093676;28;20529;-48
2023/07/24 06:35:50;;;;;;;;;;;17.80;99.90;;;;;;5093925;28;20048;-47
2023/07/24 06:38:15;;;;;;;5.95;3.05;;;17.80;99.90;;;;;;5093586;28;20346;-46
2023/07/24 06:40:41;;;;;;;7.65;4.40;;;17.90;99.90;;;;;;5093553;28;20123;-47
2023/07/24 06:43:07;;;;;;;7.25;3.63;;;17.90;99.90;;;;;;5093395;28;20040;-47
2023/07/24 06:45:32;;;;;;;7.93;3.38;;;17.90;99.90;;;;;;5093628;28;20043;-48
2023/07/24 06:47:58;;;;;;;8.02;4.00;;;17.90;99.90;;;;;;5093360;28;20101;-47
2023/07/24 06:50:24;;;;;;;8.52;3.78;;;17.90;99.90;;;;;;5092707;28;20048;-47
2023/07/24 06:52:51;;;;;;;8.25;4.00;;;18.00;99.90;;;;;;5097467;28;20075;-48
2023/07/24 06:55:17;;;;;;;8.35;3.67;;;18.00;99.90;;;;;;5097358;28;20048;-47
2023/07/24 06:57:43;;;;;;;8.05;4.15;;;18.00;99.90;;;;;;5097469;28;20040;-46
2023/07/24 07:00:11;;;;;;;7.40;3.42;;;18.00;99.90;;;;;;5096539;28;20044;-47
2023/07/24 07:02:37;;;;;;;8.15;4.03;;;18.00;99.90;;;;;;5097353;28;20490;-48
2023/07/24 07:05:04;;;;;;;8.80;3.58;;;18.10;99.90;;;;;;5097778;28;20056;-47
2023/07/24 07:07:30;;;;;;;8.18;3.97;;;18.10;99.90;;;;;;5096248;28;20056;-47
2023/07/24 07:09:56;;;;;;;10.52;3.83;;;18.10;99.90;;;;;;5097053;28;20044;-47
2023/07/24 07:12:22;;;;;;;7.75;4.13;;;18.10;99.90;;;;;;5096913;28;20122;-49
2023/07/24 07:14:47;;;;;;;9.98;3.67;;;18.20;99.90;;;;;;5097234;28;20044;-46
2023/07/24 07:17:13;;;;;;;7.95;3.60;;;18.20;99.90;;;;;;5097224;28;20098;-46
2023/07/24 07:19:39;;;;;;;9.23;3.72;;;18.20;99.90;;;;;;5096954;28;20433;-48
2023/07/24 07:22:05;;;;;;;8.70;3.85;;;18.30;99.90;;;;;;5095609;28;20123;-47
2023/07/24 07:24:30;;;;;;;7.45;3.67;;;18.20;99.90;;;;;;5096956;28;20406;-46
2023/07/24 07:26:56;;;;;;;10.48;3.90;;;18.30;99.90;;;;;;5096731;28;20048;-49
2023/07/24 07:29:22;;;;;;;8.82;4.13;;;18.30;99.90;;;;;;5097243;28;20126;-46
2023/07/24 07:31:47;;;;;;;6.32;3.60;;;18.30;99.90;;;;;;5096904;28;20087;-46
2023/07/24 07:34:13;;;;;;;7.88;3.13;;;18.30;99.90;;;;;;5096768;28;20433;-47
2023/07/24 07:36:38;;;;;;;7.85;3.72;;;18.30;99.90;;;;;;5096909;28;20071;-47
2023/07/24 07:39:04;;;;;;;8.02;3.83;;;18.40;99.90;;;;;;5095441;28;20127;-47
2023/07/24 07:41:30;;;;;;;7.88;3.75;;;18.40;99.90;;;;;;5096682;28;20494;-47
2023/07/24 07:43:55;;;;;;;7.13;3.72;;;18.40;99.90;;;;;;5096365;28;20098;-47
2023/07/24 07:46:21;;;;;;;7.28;3.85;;;18.40;99.90;;;;;;5096710;28;20040;-46
2023/07/24 07:48:48;;;;;;;7.45;3.65;;;18.50;99.90;;;;;;5096777;28;20507;-47
2023/07/24 07:51:15;;;;;;;9.85;3.58;;;18.50;99.90;;;;;;5096522;28;20384;-45
2023/07/24 07:53:40;;;;;;;8.73;3.85;;;18.50;99.90;;;;;;5096470;28;20043;-48
2023/07/24 07:56:06;;;;;;;9.60;4.03;;;18.50;99.90;;;;;;5096082;28;20044;-47
2023/07/24 07:58:32;;;;;;;7.88;3.63;;;18.50;99.90;;;;;;5096409;28;20085;-46
2023/07/24 08:00:58;;;;;;;7.95;3.38;;;18.60;99.90;;;;;;5096544;28;20044;-47
2023/07/24 08:03:23;;;;;;;9.35;3.85;;;18.60;99.90;;;;;;5077170;28;20483;-47
2023/07/24 08:05:49;;;;;;;6.60;3.45;;;18.70;99.90;;;;;;5095941;28;20059;-47
2023/07/24 08:08:15;;;;;;;8.23;4.22;;;18.70;99.90;;;;;;5096253;28;20448;-48
2023/07/24 08:10:41;;;;;;;7.43;3.60;;;18.70;99.90;;;;;;5095955;28;20044;-46
2023/07/24 08:13:09;;;;;;;7.57;3.70;;;18.80;99.90;;;;;;5096057;28;20079;-47
2023/07/24 08:15:36;;;;;;;7.55;3.17;;;18.80;99.90;;;;;;5078214;28;20060;-48
2023/07/24 08:18:03;;;;;;;8.57;3.33;;;18.90;99.90;;;;;;5094979;28;20044;-47
2023/07/24 08:20:29;;;;;;;7.38;3.95;;;18.90;99.90;;;;;;5095797;28;20059;-47
2023/07/24 08:22:54;;;;;;;6.60;2.95;;;18.90;99.90;;;;;;5095894;28;20062;-46
2023/07/24 08:25:20;;;;;;;7.55;3.42;;;18.90;99.90;;;;;;5095687;28;20394;-47
2023/07/24 08:27:46;;;;;;;6.65;3.35;;;18.90;99.90;;;;;;5096103;28;20540;-46
2023/07/24 08:30:11;;;;;;;8.52;4.20;;;19.00;99.90;;;;;;5095776;28;20040;-47
2023/07/24 08:32:39;;;;;;;9.10;4.18;;;19.00;99.90;;;;;;5095734;28;20055;-46
2023/07/24 08:35:06;;;;;;;7.10;3.33;;;19.00;99.90;;;;;;5095678;28;20491;-47
2023/07/24 08:37:31;;;;;;;7.70;3.42;;;19.00;99.90;;;;;;5095595;28;20052;-47
2023/07/24 08:39:57;;;;;;;9.55;3.53;;;19.00;99.90;;;;;;5095308;28;20051;-46
2023/07/24 08:42:23;;;;;;;7.82;3.55;;;19.00;99.90;;;;;;5095698;28;20046;-47
2023/07/24 08:44:50;;;;;;;7.78;3.33;;;19.00;99.90;;;;;;5095205;28;20090;-48
2023/07/24 08:47:16;;;;;;;9.77;3.40;;;19.00;99.90;;;;;;5095779;28;20044;-48
2023/07/24 08:49:43;;;;;;;7.18;3.28;;;19.10;99.90;;;;;;5095345;28;20051;-46
2023/07/24 08:52:09;;;;;;;7.70;3.40;;;19.10;99.90;;;;;;5095333;28;20105;-46
2023/07/24 08:54:37;;;;;;;8.63;3.55;;;19.10;99.90;;;;;;5095170;28;20127;-47
2023/07/24 08:57:06;;;;;;;6.85;3.25;;;19.10;99.90;;;;;;5095237;28;20052;-46
2023/07/24 08:59:31;;;;;;;8.25;3.53;;;19.10;99.90;;;;;;5095161;28;20140;-47
2023/07/24 09:01:57;;;;;;;7.55;2.92;;;19.10;99.90;;;;;;5094926;28;22429;-46
2023/07/24 09:04:24;;;;;;;8.10;3.20;;;19.10;99.90;;;;;;5094777;28;20047;-47
2023/07/24 09:06:50;;;;;;;6.38;2.95;;;19.10;99.90;;;;;;5095037;28;20060;-47
2023/07/24 09:09:16;;;;;;;7.20;3.47;;;19.10;99.90;;;;;;5094782;28;20044;-47
2023/07/24 09:11:53;;;;;;;8.68;3.28;;;19.20;99.90;;;;;;5093761;28;20093;-47
2023/07/24 09:14:25;;;;;;;;;;;19.20;99.90;;;;;;5095429;28;20048;-47
2023/07/24 09:17:08;;;;;;;6.85;3.00;;;19.20;99.90;;;;;;5094787;28;19942;-48
2023/07/24 09:19:34;;;;;;;7.50;3.22;;;19.30;99.90;;;;;;5094574;28;20069;-48
2023/07/24 09:22:10;;;;;;;7.30;3.70;;;19.30;99.90;;;;;;5094456;28;20386;-47
2023/07/24 09:24:36;;;;;;;7.32;3.53;;;19.40;99.90;;;;;;5094661;28;20118;-47
2023/07/24 09:27:06;;;;;;;9.73;3.17;;;19.50;99.90;;;;;;5094696;28;20508;-48
2023/07/24 09:29:33;;;;;;;7.05;2.92;;;19.50;99.90;;;;;;5093693;28;20097;-49
2023/07/24 09:32:02;;;;;;;7.97;3.50;;;19.50;99.90;;;;;;5094356;28;20044;-45
2023/07/24 09:34:28;;;;;;;7.75;3.10;;;19.70;99.90;;;;;;5094471;28;20073;-47
2023/07/24 09:36:54;;;;;;;5.97;2.97;;;19.70;99.90;;;;;;5094499;28;20059;-48
2023/07/24 09:39:24;;;;;;;6.32;3.03;;;19.80;99.90;;;;;;5094566;28;20132;-48
2023/07/24 09:41:50;;;;;;;5.78;2.80;;;19.90;99.90;;;;;;5093134;28;20048;-48
2023/07/24 09:44:15;;;;;;;6.40;2.63;;;19.90;99.90;;;;;;5094385;28;20118;-45
2023/07/24 09:46:43;;;;;;;5.95;3.05;;;19.90;99.90;;;;;;5094189;28;20051;-47
2023/07/24 09:49:10;;;;;;;10.43;3.25;;;19.90;99.90;;;;;;5094283;28;20083;-48
2023/07/24 09:51:37;;;;;;;7.97;2.95;;;19.80;99.90;;;;;;5093291;28;20508;-47
2023/07/24 09:54:23;;;;;;;9.27;3.50;;;19.80;99.90;;;;;;5094216;28;20048;-46
2023/07/24 09:56:51;;;;;;;6.78;3.25;;;19.90;99.90;;;;;;5093760;28;20091;-46
2023/07/24 09:59:17;;;;;;;7.38;3.05;;;20.00;99.90;;;;;;5093890;28;20044;-48
2023/07/24 10:01:43;;;;;;;;;;;20.00;99.90;;;;;;5094445;28;20082;-45
2023/07/24 10:04:09;;;;;;;6.70;2.75;;;20.10;99.90;;;;;;5093573;28;19920;-47
2023/07/24 10:06:35;;;;;;;6.95;3.35;;;20.20;99.90;;;;;;5094180;28;20063;-47
2023/07/24 10:09:02;;;;;;;6.57;2.65;;;20.20;99.90;;;;;;5094110;28;20058;-48
2023/07/24 10:11:28;;;;;;;5.15;2.67;;;20.30;99.90;;;;;;5093789;28;20040;-46
2023/07/24 10:13:54;;;;;;;6.78;3.10;;;20.40;99.90;;;;;;5093758;28;20075;-47
2023/07/24 10:16:20;;;;;;;4.90;2.65;;;20.50;99.90;;;;;;5093858;28;20083;-47
2023/07/24 10:18:46;;;;;;;5.97;2.83;;;20.50;99.90;;;;;;5093785;28;20094;-47
2023/07/24 10:21:13;;;;;;;6.45;3.00;;;20.60;99.90;;;;;;5092585;28;20048;-48
2023/07/24 10:23:42;;;;;;;;;;;20.80;99.90;;;;;;5094181;28;20052;-47
2023/07/24 10:26:08;;;;;;;6.38;2.90;;;20.90;99.90;;;;;;5093063;28;19920;-48
2023/07/24 10:28:40;;;;;;;8.75;2.97;;;21.00;99.90;;;;;;5093699;28;20040;-47
2023/07/24 10:31:28;;;;;;;7.07;2.72;;;21.10;99.90;;;;;;5093254;28;20123;-47
2023/07/24 10:33:54;;;;;;;;;;;21.20;99.90;;;;;;5094190;28;20055;-47
2023/07/24 10:36:22;;;;;;;7.53;3.47;;;21.10;99.90;;;;;;5093616;28;19927;-47
2023/07/24 10:38:56;;;;;;;9.38;3.72;;;21.10;99.90;;;;;;5092268;28;20051;-47
2023/07/24 10:41:22;;;;;;;7.97;3.30;;;21.00;99.90;;;;;;5093924;28;20048;-47
2023/07/24 10:43:49;;;;;;;7.60;4.03;;;21.10;99.90;;;;;;5092307;28;20483;-48
2023/07/24 10:46:16;;;;;;;6.07;3.33;;;21.20;99.90;;;;;;5093515;28;20055;-48
2023/07/24 10:48:44;;;;;;;8.05;3.45;;;21.30;99.90;;;;;;5093426;28;20094;-48
2023/07/24 10:51:10;;;;;;;5.93;2.50;;;21.40;99.90;;;;;;5093558;28;20055;-47
2023/07/24 10:53:37;;;;;;;;;;;21.40;99.90;;;;;;5093621;28;20044;-46
2023/07/24 10:56:05;;;;;;;6.35;2.00;;;21.30;99.90;;;;;;5093606;28;19920;-47
2023/07/24 10:58:31;;;;;;;4.68;1.58;;;21.10;99.90;;;;;;5093766;28;20040;-48
2023/07/24 11:00:57;;;;;;;;;;;20.90;99.90;;;;;;5094335;28;20048;-48
2023/07/24 11:03:24;;;;;;;3.53;1.50;;;20.80;99.90;;;;;;5093343;28;19920;-47
2023/07/24 11:05:50;;;;;;;5.18;2.08;;;20.70;99.90;;;;;;5093454;28;20052;-45
2023/07/24 11:08:18;;;;;;;5.05;2.45;;;20.60;99.90;;;;;;5092183;28;20066;-47
2023/07/24 11:10:56;;;;;;;5.57;1.95;;;20.50;99.90;;;;;;5093470;28;20442;-45
2023/07/24 11:13:27;;;;;;;5.18;2.78;;;20.40;99.90;;;;;;5093464;28;20047;-45
2023/07/24 11:15:54;;;;;;;5.68;2.20;;;20.30;99.90;;;;;;5075613;28;20083;-45
2023/07/24 11:18:22;;;;;;;4.60;1.92;;;20.30;99.90;;;;;;5093073;28;20048;-45
2023/07/24 11:20:55;;;;;;;6.22;2.30;;;20.20;99.90;;;;;;5093312;28;20048;-46
2023/07/24 11:23:22;;;;;;;6.15;3.00;;;20.10;99.90;;;;;;5093101;28;20043;-45
2023/07/24 11:25:51;;;;;;;7.95;3.00;;;20.10;99.90;;;;;;5093274;28;20056;-46
2023/07/24 11:28:17;;;;;;;6.78;2.85;;;20.10;99.90;;;;;;5093199;28;20059;-47
2023/07/24 11:30:43;;;;;;;4.22;2.28;;;20.10;99.90;;;;;;5093192;28;20050;-48
2023/07/24 11:33:10;;;;;;;;;;;20.10;99.90;;;;;;5093532;28;20055;-46
2023/07/24 11:35:38;;;;;;;4.63;2.00;;;20.00;99.90;;;;;;5093259;28;19927;-47
2023/07/24 11:38:04;;;;;;;5.32;2.50;;;20.00;99.90;;;;;;5094299;28;20998;-46
2023/07/24 11:40:44;;;;;;;5.78;2.92;;;19.90;99.90;;;;;;5096600;28;20131;-46
2023/07/24 11:43:21;;;;;;;5.20;3.13;;;20.00;99.90;;;;;;5096480;28;20479;-47
2023/07/24 11:45:51;;;;;;;5.10;2.90;;;19.90;99.90;;;;;;5095296;28;20078;-45
2023/07/24 11:48:18;;;;;;;5.95;3.05;;;19.90;99.90;;;;;;5096706;28;20059;-46
2023/07/24 11:50:46;;;;;;;6.45;2.70;;;19.90;99.90;;;;;;5096490;28;20433;-45
2023/07/24 11:53:25;;;;;;;4.95;2.67;;;19.90;99.90;;;;;;5095571;28;20044;-45
2023/07/24 11:55:53;;;;;;;7.00;3.75;;;20.00;99.90;;;;;;5095585;28;20052;-46
2023/07/24 11:58:20;;;;;;;5.75;2.75;;;20.10;99.90;;;;;;5096910;28;20043;-45
2023/07/24 12:00:47;;;;;;;6.50;3.00;;;20.20;99.90;;;;;;5096361;28;20043;-46
2023/07/24 12:03:14;;;;;;;5.90;2.85;;;20.30;99.90;;;;;;5096315;28;20398;-46
2023/07/24 12:05:44;;;;;;;5.88;2.85;;;20.50;99.90;;;;;;5096226;28;20055;-45
2023/07/24 12:08:10;;;;;;;6.60;3.05;;;20.60;99.90;;;;;;5096188;28;20102;-45
2023/07/24 12:10:40;;;;;;;7.25;2.92;;;20.70;99.90;;;;;;5095874;28;20048;-45
2023/07/24 12:13:06;;;;;;;6.47;2.63;;;20.80;99.90;;;;;;5096162;28;20036;-46
2023/07/24 12:15:34;;;;;;;5.68;2.72;;;20.90;99.90;;;;;;5096054;28;20079;-45
2023/07/24 12:18:00;;;;;;;5.20;2.35;;;21.10;99.90;;;;;;5096007;28;20123;-45
2023/07/24 12:20:26;;;;;;;;;;;21.20;99.90;;;;;;5095483;28;20048;-46
2023/07/24 12:22:52;;;;;;;4.32;2.30;;;21.30;99.90;;;;;;5095669;28;19927;-46
2023/07/24 12:25:18;;;;;;;5.28;2.63;;;21.30;99.90;;;;;;5095698;28;20040;-45
2023/07/24 12:27:43;;;;;;;6.60;3.47;;;21.20;99.90;;;;;;5095792;28;20482;-47
2023/07/24 12:30:09;;;;;;;5.63;2.88;;;21.20;99.90;;;;;;5094528;28;20127;-47
2023/07/24 12:32:35;;;;;;;6.82;3.35;;;21.00;99.90;;;;;;5094789;28;20048;-48
2023/07/24 12:35:01;;;;;;;6.72;3.35;;;20.60;99.90;;;;;;5095768;28;20056;-47
2023/07/24 12:37:26;;;;;;;5.38;2.47;;;20.30;99.90;;;;;;5094373;28;20051;-48
2023/07/24 12:39:52;;;;;;;5.53;2.55;;;20.10;99.90;;;;;;5095527;28;20047;-50
2023/07/24 12:42:18;;;;;;;5.53;2.72;;;19.80;99.90;;;;;;5095511;28;20431;-48
2023/07/24 12:44:44;;;;;;;6.63;3.35;;;19.60;99.90;;;;;;5095489;28;20424;-48
2023/07/24 12:47:11;;;;;;;6.82;3.42;;;19.50;99.90;;;;;;5095428;28;20044;-48
2023/07/24 12:49:37;;;;;;;7.82;2.97;;;19.40;99.90;;;;;;5094978;28;20036;-47